createdAt,value
2023-05-10T00:01:19.589Z,8.75
2023-05-10T00:03:47.059Z,7.50
2023-05-10T00:06:14.281Z,9.13
2023-05-10T00:08:41.650Z,7.93
2023-05-10T00:11:08.847Z,8.13
2023-05-10T00:13:36.079Z,8.07
2023-05-10T00:16:03.894Z,9.93
2023-05-10T00:18:31.006Z,7.60
2023-05-10T00:20:58.598Z,7.45
2023-05-10T00:23:25.644Z,8.82
2023-05-10T00:25:52.933Z,10.88
2023-05-10T00:28:20.248Z,9.27
2023-05-10T00:30:47.508Z,8.02
2023-05-10T00:33:14.838Z,7.75
2023-05-10T00:35:42.997Z,7.25
2023-05-10T00:38:10.023Z,10.10
2023-05-10T00:40:38.520Z,7.57
2023-05-10T00:43:10.928Z,8.00
2023-05-10T00:45:38.616Z,7.88
2023-05-10T00:48:06.270Z,9.75
2023-05-10T00:50:34.853Z,10.40
2023-05-10T00:53:03.628Z,10.60
2023-05-10T00:55:32.030Z,9.70
2023-05-10T00:57:59.649Z,8.57
2023-05-10T01:00:26.973Z,8.80
2023-05-10T01:02:55.702Z,7.28
2023-05-10T01:05:23.251Z,7.50
2023-05-10T01:07:51.376Z,7.28
2023-05-10T01:10:19.596Z,10.05
2023-05-10T01:12:48.692Z,12.32
2023-05-10T01:15:17.562Z,13.90
2023-05-10T01:17:47.852Z,9.52
2023-05-10T01:20:16.732Z,9.70
2023-05-10T01:23:11.943Z,9.10
2023-05-10T01:26:14.805Z,9.32
2023-05-10T01:29:09.418Z,9.50
2023-05-10T01:32:03.692Z,11.25
2023-05-10T01:34:37.162Z,14.45
2023-05-10T01:37:10.165Z,8.43
2023-05-10T01:39:47.022Z,12.32
2023-05-10T01:42:24.227Z,10.85
2023-05-10T01:45:09.052Z,9.70
2023-05-10T01:47:41.440Z,14.32
2023-05-10T01:50:24.791Z,10.15
2023-05-10T01:52:56.347Z,12.00
2023-05-10T01:55:28.926Z,8.48
2023-05-10T01:58:06.751Z,9.00
2023-05-10T02:00:35.549Z,10.30
2023-05-10T02:03:07.917Z,10.07
2023-05-10T02:05:36.453Z,9.38
2023-05-10T02:08:07.093Z,12.23
2023-05-10T02:10:37.268Z,12.32
2023-05-10T02:13:07.334Z,13.13
2023-05-10T02:15:35.649Z,12.38
2023-05-10T02:18:05.194Z,15.27
2023-05-10T02:20:33.877Z,12.35
2023-05-10T02:23:02.398Z,10.77
2023-05-10T02:25:32.807Z,11.55
2023-05-10T02:28:02.753Z,11.20
2023-05-10T02:30:32.478Z,12.63
2023-05-10T02:33:00.577Z,10.10
2023-05-10T02:35:29.615Z,11.63
2023-05-10T02:37:59.839Z,12.75
2023-05-10T02:40:28.889Z,9.82
2023-05-10T02:42:59.928Z,10.43
2023-05-10T02:45:31.471Z,9.55
2023-05-10T02:47:59.927Z,9.57
2023-05-10T02:50:31.015Z,10.18
2023-05-10T02:53:04.283Z,8.20
2023-05-10T02:55:37.758Z,10.43
2023-05-10T02:58:05.493Z,8.67
2023-05-10T03:00:33.419Z,9.18
2023-05-10T03:03:01.575Z,11.90
2023-05-10T03:05:29.273Z,9.48
2023-05-10T03:08:01.777Z,11.93
2023-05-10T03:10:31.895Z,11.43
2023-05-10T03:13:26.732Z,8.80
2023-05-10T03:16:09.025Z,9.10
2023-05-10T03:18:58.144Z,10.68
2023-05-10T03:21:29.925Z,9.35
2023-05-10T03:24:05.236Z,11.32
2023-05-10T03:26:33.923Z,13.98
2023-05-10T03:29:10.020Z,9.98
2023-05-10T03:31:37.269Z,12.15
2023-05-10T03:34:04.932Z,10.32
2023-05-10T03:36:32.023Z,10.48
2023-05-10T03:38:59.968Z,13.20
2023-05-10T03:41:27.858Z,12.60
2023-05-10T03:43:55.317Z,9.40
2023-05-10T03:46:23.021Z,7.68
2023-05-10T03:48:50.889Z,9.93
2023-05-10T03:51:18.788Z,11.65
2023-05-10T03:53:46.025Z,10.48
2023-05-10T03:56:13.453Z,9.30
2023-05-10T03:58:40.911Z,10.02
2023-05-10T04:01:08.155Z,11.20
2023-05-10T04:03:37.514Z,9.95
2023-05-10T04:06:06.495Z,9.38
2023-05-10T04:08:33.768Z,9.57
2023-05-10T04:11:09.880Z,10.13
2023-05-10T04:13:37.312Z,8.70
2023-05-10T04:16:05.249Z,11.32
2023-05-10T04:18:33.012Z,13.25
2023-05-10T04:21:00.592Z,9.60
2023-05-10T04:23:29.020Z,9.50
2023-05-10T04:26:03.696Z,9.93
2023-05-10T04:31:06.798Z,14.25
2023-05-10T04:33:34.490Z,16.25
2023-05-10T04:36:01.864Z,11.93
2023-05-10T04:38:30.924Z,8.80
2023-05-10T04:41:07.417Z,8.48
2023-05-10T04:43:35.206Z,9.07
2023-05-10T04:46:02.504Z,7.75
2023-05-10T04:48:30.068Z,8.68
2023-05-10T04:50:57.488Z,9.93
2023-05-10T04:53:24.980Z,10.68
2023-05-10T04:55:52.087Z,11.57
2023-05-10T04:58:19.362Z,11.00
2023-05-10T05:00:46.525Z,6.90
2023-05-10T05:03:13.892Z,8.35
2023-05-10T05:05:41.199Z,10.75
2023-05-10T05:08:08.349Z,10.57
2023-05-10T05:10:35.973Z,10.77
2023-05-10T05:13:03.074Z,11.05
2023-05-10T05:15:31.640Z,9.65
2023-05-10T05:17:58.949Z,8.13
2023-05-10T05:20:26.305Z,8.85
2023-05-10T05:22:53.483Z,10.15
2023-05-10T05:25:20.944Z,13.15
2023-05-10T05:27:47.987Z,9.75
2023-05-10T05:30:15.416Z,8.85
2023-05-10T05:32:43.223Z,9.32
2023-05-10T05:35:10.614Z,8.57
2023-05-10T05:37:38.272Z,11.82
2023-05-10T05:40:06.507Z,11.38
2023-05-10T05:42:33.981Z,8.95
2023-05-10T05:45:01.663Z,8.95
2023-05-10T05:47:29.329Z,8.13
2023-05-10T05:49:56.916Z,7.32
2023-05-10T05:52:24.777Z,7.22
2023-05-10T05:54:52.206Z,8.05
2023-05-10T05:57:19.182Z,7.32
2023-05-10T05:59:46.845Z,8.30
2023-05-10T06:02:14.042Z,7.53
2023-05-10T06:04:44.404Z,8.38
2023-05-10T06:07:12.258Z,7.65
2023-05-10T06:09:39.535Z,8.52
2023-05-10T06:12:06.810Z,6.80
2023-05-10T06:14:33.930Z,8.05
2023-05-10T06:17:01.802Z,8.65
2023-05-10T06:19:29.087Z,9.93
2023-05-10T06:21:56.609Z,8.65
2023-05-10T06:24:23.603Z,7.03
2023-05-10T06:26:51.520Z,8.85
2023-05-10T06:29:18.665Z,9.27
2023-05-10T06:31:46.173Z,9.25
2023-05-10T06:34:14.606Z,7.22
2023-05-10T06:36:42.241Z,23.42
2023-05-10T06:39:09.429Z,9.32
2023-05-10T06:41:36.818Z,9.02
2023-05-10T06:44:04.854Z,9.38
2023-05-10T06:46:32.237Z,8.55
2023-05-10T06:48:59.375Z,9.35
2023-05-10T06:51:27.161Z,8.90
2023-05-10T06:53:54.290Z,11.85
2023-05-10T06:56:22.744Z,15.00
2023-05-10T06:58:50.273Z,8.95
2023-05-10T07:01:17.649Z,9.85
2023-05-10T07:03:44.980Z,13.95
2023-05-10T07:06:21.602Z,8.23
2023-05-10T07:08:58.217Z,11.18
2023-05-10T07:11:25.338Z,11.30
2023-05-10T07:13:52.435Z,11.15
2023-05-10T07:16:19.932Z,10.18
2023-05-10T07:18:47.640Z,9.57
2023-05-10T07:21:14.764Z,10.55
2023-05-10T07:23:44.309Z,12.02
2023-05-10T07:26:12.872Z,11.20
2023-05-10T07:28:40.176Z,9.45
2023-05-10T07:31:07.679Z,13.40
2023-05-10T07:33:34.942Z,10.23
2023-05-10T07:36:02.221Z,11.40
2023-05-10T07:38:31.073Z,10.13
2023-05-10T07:40:58.226Z,10.73
2023-05-10T07:43:25.423Z,9.40
2023-05-10T07:45:55.385Z,10.45
2023-05-10T07:48:23.509Z,11.50
2023-05-10T07:50:50.708Z,9.68
2023-05-10T07:53:19.799Z,10.90
2023-05-10T07:55:52.856Z,9.38
2023-05-10T07:58:19.966Z,11.05
2023-05-10T08:00:47.235Z,9.70
2023-05-10T08:03:14.721Z,10.40
2023-05-10T08:05:42.887Z,10.13
2023-05-10T08:08:10.069Z,11.00
2023-05-10T08:10:37.297Z,9.93
2023-05-10T08:13:04.644Z,11.70
2023-05-10T08:15:33.026Z,9.02
2023-05-10T08:18:00.676Z,12.15
2023-05-10T08:20:28.144Z,10.95
2023-05-10T08:22:55.329Z,11.45
2023-05-10T08:25:22.378Z,10.35
2023-05-10T08:27:49.679Z,10.60
2023-05-10T08:30:16.747Z,10.55
2023-05-10T08:32:43.973Z,10.45
2023-05-10T08:35:11.117Z,12.23
2023-05-10T08:37:38.275Z,10.43
2023-05-10T08:40:05.861Z,11.45
2023-05-10T08:42:38.772Z,12.18
2023-05-10T08:45:08.320Z,12.85
2023-05-10T08:47:39.168Z,12.30
2023-05-10T08:50:07.820Z,11.32
2023-05-10T08:52:41.329Z,12.23
2023-05-10T08:55:08.947Z,12.07
2023-05-10T08:57:37.474Z,13.48
2023-05-10T09:00:06.480Z,13.60
2023-05-10T09:02:34.150Z,15.65
2023-05-10T09:05:01.363Z,13.18
2023-05-10T09:07:28.795Z,13.13
2023-05-10T09:09:56.325Z,14.55
2023-05-10T09:12:23.789Z,12.63
2023-05-10T09:14:53.525Z,13.88
2023-05-10T09:17:21.213Z,11.23
2023-05-10T09:19:48.358Z,11.57
2023-05-10T09:22:15.583Z,12.40
2023-05-10T09:24:46.338Z,11.25
2023-05-10T09:27:13.539Z,12.05
2023-05-10T09:29:42.841Z,13.32
2023-05-10T09:32:09.957Z,11.88
2023-05-10T09:34:40.963Z,11.02
2023-05-10T09:37:09.209Z,11.70
2023-05-10T09:39:38.428Z,13.95
2023-05-10T09:42:07.785Z,11.18
2023-05-10T09:44:36.027Z,10.50
2023-05-10T09:47:04.031Z,9.57
2023-05-10T09:49:31.944Z,10.15
2023-05-10T09:52:01.515Z,11.02
2023-05-10T09:54:28.616Z,10.73
2023-05-10T09:56:55.727Z,10.95
2023-05-10T09:59:23.087Z,10.63
2023-05-10T10:01:56.706Z,8.52
2023-05-10T10:04:24.618Z,9.68
2023-05-10T10:07:01.821Z,8.85
2023-05-10T10:09:29.419Z,9.32
2023-05-10T10:11:57.752Z,8.68
2023-05-10T10:14:25.686Z,8.48
2023-05-10T10:17:06.833Z,8.35
2023-05-10T10:19:37.104Z,9.68
2023-05-10T10:22:04.841Z,8.57
2023-05-10T10:24:32.098Z,10.48
2023-05-10T10:27:10.197Z,9.93
2023-05-10T10:30:07.878Z,8.00
2023-05-10T10:33:05.589Z,9.35
2023-05-10T10:35:37.833Z,9.75
2023-05-10T10:38:05.456Z,8.45
2023-05-10T10:40:35.201Z,8.70
2023-05-10T10:43:23.257Z,8.85
2023-05-10T10:46:18.876Z,6.57
2023-05-10T10:49:08.982Z,6.53
2023-05-10T10:51:40.086Z,8.02
2023-05-10T10:54:27.868Z,6.00
2023-05-10T10:57:13.819Z,6.63
2023-05-10T10:59:46.452Z,5.38
2023-05-10T11:02:34.473Z,5.90
2023-05-10T11:05:21.563Z,7.88
2023-05-10T11:07:57.443Z,7.30
2023-05-10T11:10:25.587Z,5.25
2023-05-10T11:13:01.968Z,4.70
2023-05-10T11:15:32.030Z,10.95
2023-05-10T11:18:00.269Z,5.40
2023-05-10T11:20:34.273Z,6.05
2023-05-10T11:23:16.654Z,4.40
2023-05-10T11:25:45.360Z,6.05
2023-05-10T11:28:13.560Z,6.82
2023-05-10T11:30:41.877Z,4.55
2023-05-10T11:33:10.322Z,4.15
2023-05-10T11:35:43.031Z,4.38
2023-05-10T11:38:12.530Z,4.65
2023-05-10T11:40:40.914Z,4.65
2023-05-10T11:43:11.309Z,3.90
2023-05-10T11:45:38.988Z,4.32
2023-05-10T11:48:06.288Z,4.70
2023-05-10T11:50:33.807Z,3.90
2023-05-10T11:53:00.993Z,3.78
2023-05-10T11:55:28.168Z,5.53
2023-05-10T11:57:55.888Z,4.63
2023-05-10T12:00:23.209Z,4.22
2023-05-10T12:02:51.206Z,3.10
2023-05-10T12:05:18.948Z,3.80
2023-05-10T12:07:46.030Z,2.95
2023-05-10T12:10:16.358Z,4.75
2023-05-10T12:12:46.747Z,3.45
2023-05-10T12:15:20.917Z,3.25
2023-05-10T12:17:48.714Z,4.38
2023-05-10T12:20:25.232Z,3.38
2023-05-10T12:22:54.966Z,2.50
2023-05-10T12:25:23.906Z,4.72
2023-05-10T12:27:54.020Z,6.55
2023-05-10T12:30:23.244Z,3.03
2023-05-10T12:32:50.781Z,3.50
2023-05-10T12:35:18.051Z,3.08
2023-05-10T12:37:45.119Z,3.30
2023-05-10T12:40:13.501Z,3.55
2023-05-10T12:42:41.368Z,4.18
2023-05-10T12:45:09.785Z,3.42
2023-05-10T12:47:37.256Z,4.40
2023-05-10T12:50:05.148Z,3.67
2023-05-10T12:52:34.202Z,3.72
2023-05-10T12:55:02.012Z,3.00
2023-05-10T12:57:29.279Z,3.10
2023-05-10T12:59:56.775Z,3.28
2023-05-10T13:02:24.336Z,2.78
2023-05-10T13:04:51.751Z,2.80
2023-05-10T13:07:18.925Z,6.15
2023-05-10T13:09:46.075Z,3.58
2023-05-10T13:12:13.183Z,3.80
2023-05-10T13:14:41.656Z,4.15
2023-05-10T13:17:08.908Z,4.10
2023-05-10T13:19:36.146Z,3.22
2023-05-10T13:22:03.931Z,4.03
2023-05-10T13:24:31.103Z,5.35
2023-05-10T13:26:58.118Z,6.15
2023-05-10T13:29:25.348Z,3.72
2023-05-10T13:31:52.641Z,4.43
2023-05-10T13:34:21.628Z,5.70
2023-05-10T13:36:50.034Z,4.00
2023-05-10T13:39:17.256Z,6.00
2023-05-10T13:41:44.417Z,6.18
2023-05-10T13:44:14.106Z,4.25
2023-05-10T13:46:42.095Z,3.58
2023-05-10T13:49:10.197Z,4.40
2023-05-10T13:51:37.391Z,5.78
2023-05-10T13:54:04.690Z,3.42
2023-05-10T13:56:31.759Z,4.68
2023-05-10T13:58:59.552Z,5.45
2023-05-10T14:01:26.796Z,6.35
2023-05-10T14:03:54.028Z,4.47
2023-05-10T14:06:21.448Z,3.45
2023-05-10T14:08:48.790Z,3.50
2023-05-10T14:11:16.328Z,3.95
2023-05-10T14:13:43.600Z,4.22
2023-05-10T14:16:10.825Z,5.07
2023-05-10T14:18:38.152Z,3.83
2023-05-10T14:21:05.772Z,4.32
2023-05-10T14:23:33.150Z,3.50
2023-05-10T14:26:00.341Z,8.93
2023-05-10T14:28:27.527Z,5.10
2023-05-10T14:30:54.786Z,4.70
2023-05-10T14:33:22.214Z,5.50
2023-05-10T14:35:49.635Z,4.28
2023-05-10T14:38:16.736Z,3.53
2023-05-10T14:40:44.148Z,3.33
2023-05-10T14:43:11.312Z,3.85
2023-05-10T14:45:38.414Z,6.25
2023-05-10T14:48:06.963Z,3.97
2023-05-10T14:50:36.888Z,4.90
2023-05-10T14:53:04.922Z,4.93
2023-05-10T14:55:32.145Z,3.42
2023-05-10T14:57:59.743Z,6.13
2023-05-10T15:00:27.522Z,5.38
2023-05-10T15:02:55.279Z,3.00
2023-05-10T15:05:23.363Z,2.53
2023-05-10T15:07:51.319Z,3.70
2023-05-10T15:10:19.349Z,2.85
2023-05-10T15:12:46.398Z,2.65
2023-05-10T15:15:13.498Z,3.20
2023-05-10T15:17:40.579Z,3.60
2023-05-10T15:20:08.472Z,2.33
2023-05-10T15:22:35.603Z,4.13
2023-05-10T15:25:02.788Z,3.47
2023-05-10T15:27:29.837Z,3.85
2023-05-10T15:29:57.003Z,4.22
2023-05-10T15:32:24.097Z,4.40
2023-05-10T15:34:51.249Z,4.20
2023-05-10T15:37:18.311Z,3.80
2023-05-10T15:39:45.572Z,3.85
2023-05-10T15:42:13.220Z,2.50
2023-05-10T15:44:40.291Z,3.63
2023-05-10T15:47:07.544Z,3.15
2023-05-10T15:49:34.866Z,3.00
2023-05-10T15:52:02.068Z,2.50
2023-05-10T15:54:29.353Z,3.30
2023-05-10T15:56:56.652Z,4.10
2023-05-10T15:59:23.746Z,5.10
2023-05-10T16:01:52.052Z,3.17
2023-05-10T16:04:19.196Z,2.63
2023-05-10T16:06:46.244Z,3.83
2023-05-10T16:09:13.304Z,2.42
2023-05-10T16:11:40.500Z,3.78
2023-05-10T16:14:07.569Z,3.10
2023-05-10T16:16:35.119Z,3.13
2023-05-10T16:19:03.882Z,5.22
2023-05-10T16:21:32.822Z,2.83
2023-05-10T16:24:01.173Z,6.05
2023-05-10T16:26:28.314Z,3.88
2023-05-10T16:28:55.281Z,5.32
2023-05-10T16:31:22.418Z,5.43
2023-05-10T16:33:50.519Z,3.10
2023-05-10T16:36:17.540Z,4.35
2023-05-10T16:38:44.815Z,3.83
2023-05-10T16:41:11.913Z,4.82
2023-05-10T16:43:38.966Z,5.00
2023-05-10T16:46:11.669Z,4.68
2023-05-10T16:48:39.064Z,4.20
2023-05-10T16:51:06.199Z,4.13
2023-05-10T16:53:33.981Z,5.07
2023-05-10T16:56:01.348Z,4.28
2023-05-10T16:58:28.476Z,3.90
2023-05-10T17:00:55.594Z,4.60
2023-05-10T17:03:22.769Z,3.92
2023-05-10T17:05:49.992Z,6.10
2023-05-10T17:08:17.256Z,6.20
2023-05-10T17:10:44.369Z,4.72
2023-05-10T17:13:11.469Z,3.88
2023-05-10T17:15:39.526Z,4.32
2023-05-10T17:18:07.585Z,5.18
2023-05-10T17:20:35.107Z,6.30
2023-05-10T17:23:03.405Z,4.15
2023-05-10T17:25:30.602Z,5.05
2023-05-10T17:27:57.760Z,4.38
2023-05-10T17:30:27.670Z,5.30
2023-05-10T17:32:54.938Z,4.18
2023-05-10T17:35:22.165Z,9.48
2023-05-10T17:37:49.300Z,3.92
2023-05-10T17:40:16.450Z,4.70
2023-05-10T17:42:43.585Z,5.05
2023-05-10T17:45:11.244Z,5.65
2023-05-10T17:47:38.748Z,4.57
2023-05-10T17:50:06.775Z,9.02
2023-05-10T17:52:34.053Z,9.23
2023-05-10T17:55:01.495Z,8.85
2023-05-10T17:57:28.826Z,7.40
2023-05-10T17:59:56.025Z,9.07
2023-05-10T18:02:23.079Z,10.02
2023-05-10T18:04:50.342Z,8.80
2023-05-10T18:07:17.552Z,8.57
2023-05-10T18:09:44.564Z,14.20
2023-05-10T18:12:11.755Z,8.77
2023-05-10T18:14:41.100Z,7.43
2023-05-10T18:17:09.797Z,8.15
2023-05-10T18:19:37.082Z,14.95
2023-05-10T18:22:04.348Z,6.00
2023-05-10T18:24:38.912Z,7.28
2023-05-10T18:27:08.737Z,5.80
2023-05-10T18:29:37.047Z,5.70
2023-05-10T18:32:04.413Z,6.38
2023-05-10T18:34:31.772Z,6.20
2023-05-10T18:36:59.683Z,5.80
2023-05-10T18:39:27.020Z,5.72
2023-05-10T18:41:54.680Z,6.93
2023-05-10T18:44:23.320Z,5.95
2023-05-10T18:46:54.147Z,6.43
2023-05-10T18:49:21.673Z,8.68
2023-05-10T18:51:49.252Z,5.65
2023-05-10T18:54:16.893Z,6.88
2023-05-10T18:56:45.823Z,10.13
2023-05-10T18:59:13.462Z,6.80
2023-05-10T19:01:42.259Z,7.57
2023-05-10T19:04:09.944Z,6.82
2023-05-10T19:06:37.418Z,9.80
2023-05-10T19:09:04.856Z,11.25
2023-05-10T19:11:34.524Z,8.48
2023-05-10T19:14:02.754Z,7.35
2023-05-10T19:16:30.555Z,7.75
2023-05-10T19:18:58.616Z,7.03
2023-05-10T19:21:26.417Z,6.97
2023-05-10T19:23:53.875Z,7.53
2023-05-10T19:26:22.546Z,6.60
2023-05-10T19:28:53.771Z,6.82
2023-05-10T19:31:22.019Z,6.35
2023-05-10T19:33:49.346Z,8.25
2023-05-10T19:36:16.560Z,8.60
2023-05-10T19:38:43.856Z,7.55
2023-05-10T19:41:11.815Z,6.55
2023-05-10T19:43:39.938Z,6.43
2023-05-10T19:46:09.124Z,6.40
2023-05-10T19:48:36.431Z,6.18
2023-05-10T19:51:07.024Z,6.10
2023-05-10T19:53:36.820Z,6.63
2023-05-10T19:56:06.832Z,6.75
2023-05-10T19:58:34.591Z,7.10
2023-05-10T20:01:01.941Z,7.13
2023-05-10T20:03:29.442Z,7.03
2023-05-10T20:05:57.058Z,6.90
2023-05-10T20:08:25.154Z,7.60
2023-05-10T20:10:52.962Z,8.25
2023-05-10T20:13:20.921Z,6.90
2023-05-10T20:15:49.457Z,9.02
2023-05-10T20:18:16.703Z,6.78
2023-05-10T20:20:44.175Z,7.60
2023-05-10T20:23:11.438Z,7.18
2023-05-10T20:25:38.793Z,9.88
2023-05-10T20:28:08.089Z,8.38
2023-05-10T20:30:35.790Z,9.18
2023-05-10T20:33:04.630Z,7.38
2023-05-10T20:35:32.272Z,7.85
2023-05-10T20:38:00.304Z,7.20
2023-05-10T20:40:27.600Z,10.18
2023-05-10T20:42:54.955Z,7.38
2023-05-10T20:45:22.393Z,7.45
2023-05-10T20:47:50.421Z,7.68
2023-05-10T20:50:17.781Z,9.18
2023-05-10T20:52:45.284Z,7.93
2023-05-10T20:55:12.819Z,9.10
2023-05-10T20:57:40.082Z,7.88
2023-05-10T21:00:08.295Z,8.07
2023-05-10T21:02:35.555Z,7.80
2023-05-10T21:05:02.751Z,10.85
2023-05-10T21:07:32.373Z,8.93
2023-05-10T21:09:59.545Z,9.70
2023-05-10T21:12:26.892Z,10.52
2023-05-10T21:14:54.016Z,13.48
2023-05-10T21:17:21.232Z,9.48
2023-05-10T21:19:48.401Z,10.40
2023-05-10T21:22:15.885Z,9.90
2023-05-10T21:24:43.523Z,10.70
2023-05-10T21:27:11.260Z,9.50
2023-05-10T21:29:38.304Z,9.30
2023-05-10T21:32:05.803Z,9.98
2023-05-10T21:34:33.326Z,12.25
2023-05-10T21:37:01.402Z,9.50
2023-05-10T21:39:28.583Z,8.85
2023-05-10T21:41:56.200Z,11.10
2023-05-10T21:44:23.739Z,12.23
2023-05-10T21:46:50.787Z,11.98
2023-05-10T21:49:17.908Z,10.57
2023-05-10T21:51:45.157Z,10.52
2023-05-10T21:54:12.201Z,10.68
2023-05-10T21:56:39.342Z,10.48
2023-05-10T21:59:06.822Z,11.50
2023-05-10T22:01:34.010Z,10.40
2023-05-10T22:04:01.318Z,9.63
2023-05-10T22:06:28.326Z,9.80
2023-05-10T22:08:55.643Z,9.73
2023-05-10T22:11:23.219Z,10.60
2023-05-10T22:13:50.354Z,11.05
2023-05-10T22:16:17.610Z,10.40
2023-05-10T22:18:44.878Z,11.18
2023-05-10T22:21:12.068Z,10.20
2023-05-10T22:23:39.162Z,10.52
2023-05-10T22:26:06.480Z,11.52
2023-05-10T22:28:33.676Z,12.88
2023-05-10T22:31:01.002Z,12.00
2023-05-10T22:33:28.154Z,11.85
2023-05-10T22:35:55.319Z,11.40
2023-05-10T22:38:22.440Z,15.25
2023-05-10T22:40:49.551Z,12.07
2023-05-10T22:43:17.273Z,11.75
2023-05-10T22:45:44.502Z,12.93
2023-05-10T22:48:11.917Z,12.85
2023-05-10T22:50:39.228Z,12.52
2023-05-10T22:53:06.776Z,13.10
2023-05-10T22:55:34.027Z,13.73
2023-05-10T22:58:01.277Z,12.88
2023-05-10T23:00:28.301Z,12.90
2023-05-10T23:02:55.712Z,12.82
2023-05-10T23:05:22.827Z,12.15
2023-05-10T23:07:53.251Z,15.52
2023-05-10T23:10:20.961Z,12.38
2023-05-10T23:12:48.178Z,12.63
2023-05-10T23:15:15.400Z,11.88
2023-05-10T23:17:42.921Z,12.05
2023-05-10T23:20:10.909Z,13.13
2023-05-10T23:22:38.004Z,12.45
2023-05-10T23:25:05.857Z,12.55
2023-05-10T23:27:33.081Z,12.25
2023-05-10T23:30:00.344Z,12.50
2023-05-10T23:32:27.497Z,12.10
2023-05-10T23:34:54.632Z,12.65
2023-05-10T23:37:21.847Z,13.50
2023-05-10T23:39:48.913Z,12.65
2023-05-10T23:42:16.099Z,12.48
2023-05-10T23:44:43.157Z,13.48
2023-05-10T23:47:10.443Z,12.18
2023-05-10T23:49:38.147Z,13.20
2023-05-10T23:55:34.810Z,12.48
2023-05-10T23:58:02.103Z,12.00
